createdAt,value
2023-04-19T00:00:14.139Z,8.6914
2023-04-19T00:01:14.745Z,8.7018
2023-04-19T00:02:15.407Z,8.6791
2023-04-19T00:03:15.938Z,8.6709
2023-04-19T00:04:16.386Z,8.6678
2023-04-19T00:05:16.820Z,8.6832
2023-04-19T00:06:17.776Z,8.6743
2023-04-19T00:07:18.612Z,8.6865
2023-04-19T00:08:19.362Z,8.6797
2023-04-19T00:09:20.065Z,8.6791
2023-04-19T00:10:21.049Z,8.6919
2023-04-19T00:11:21.687Z,8.7019
2023-04-19T00:12:22.364Z,8.7136
2023-04-19T00:13:23.030Z,8.7163
2023-04-19T00:14:23.662Z,8.7076
2023-04-19T00:15:24.438Z,8.7152
2023-04-19T00:16:25.130Z,8.7451
2023-04-19T00:17:26.075Z,8.7364
2023-04-19T00:18:27.242Z,8.7513
2023-04-19T00:19:27.934Z,8.7415
2023-04-19T00:20:28.447Z,8.7232
2023-04-19T00:21:29.177Z,8.7172
2023-04-19T00:22:29.877Z,8.7183
2023-04-19T00:23:30.491Z,8.7113
2023-04-19T00:24:31.074Z,8.7051
2023-04-19T00:25:31.788Z,8.7105
2023-04-19T00:26:32.485Z,8.7053
2023-04-19T00:27:33.219Z,8.7052
2023-04-19T00:28:33.828Z,8.6920
2023-04-19T00:29:34.576Z,8.6989
2023-04-19T00:30:36.008Z,8.6757
2023-04-19T00:31:37.268Z,8.6880
2023-04-19T00:32:37.974Z,8.6807
2023-04-19T00:33:39.989Z,8.6973
2023-04-19T00:34:41.135Z,8.6768
2023-04-19T00:35:42.004Z,8.6753
2023-04-19T00:36:42.659Z,8.6824
2023-04-19T00:37:43.447Z,8.6634
2023-04-19T00:38:44.053Z,8.6741
2023-04-19T00:39:44.714Z,8.6880
2023-04-19T00:40:45.500Z,8.6790
2023-04-19T00:41:46.133Z,8.6602
2023-04-19T00:42:46.844Z,8.6857
2023-04-19T00:43:47.577Z,8.6886
2023-04-19T00:44:48.197Z,8.6693
2023-04-19T00:45:49.340Z,8.6719
2023-04-19T00:46:50.549Z,8.6466
2023-04-19T00:47:51.562Z,8.6378
2023-04-19T00:48:52.355Z,8.6416
2023-04-19T00:49:53.026Z,8.6427
2023-04-19T00:50:53.790Z,8.6461
2023-04-19T00:51:54.511Z,8.6355
2023-04-19T00:52:55.228Z,8.6432
2023-04-19T00:53:55.866Z,8.6375
2023-04-19T00:54:56.515Z,8.6275
2023-04-19T00:55:57.320Z,8.6404
2023-04-19T00:56:58.095Z,8.6395
2023-04-19T00:57:58.881Z,8.6301
2023-04-19T00:58:59.640Z,8.6349
2023-04-19T01:00:00.672Z,8.6278
2023-04-19T01:01:01.513Z,8.6351
2023-04-19T01:02:02.541Z,8.6374
2023-04-19T01:03:02.711Z,8.6482
2023-04-19T01:04:04.073Z,8.6456
2023-04-19T01:05:05.507Z,8.6627
2023-04-19T01:06:06.173Z,8.6534
2023-04-19T01:07:06.893Z,8.6443
2023-04-19T01:08:07.756Z,8.6427
2023-04-19T01:09:08.461Z,8.6393
2023-04-19T01:10:09.161Z,8.6362
2023-04-19T01:11:09.864Z,8.6314
2023-04-19T01:12:10.504Z,8.6300
2023-04-19T01:13:11.153Z,8.6312
2023-04-19T01:14:11.951Z,8.6259
2023-04-19T01:15:12.974Z,8.6156
2023-04-19T01:16:13.912Z,8.6012
2023-04-19T01:17:14.044Z,8.6033
2023-04-19T01:18:15.015Z,8.5861
2023-04-19T01:19:15.684Z,8.5796
2023-04-19T01:20:16.338Z,8.5830
2023-04-19T01:21:17.031Z,8.5678
2023-04-19T01:22:17.665Z,8.5689
2023-04-19T01:23:17.740Z,8.5633
2023-04-19T01:24:18.342Z,8.5561
2023-04-19T01:25:19.021Z,8.5412
2023-04-19T01:26:19.775Z,8.5324
2023-04-19T01:27:20.580Z,8.5342
2023-04-19T01:28:21.210Z,8.5194
2023-04-19T01:29:21.848Z,8.5358
2023-04-19T01:30:22.459Z,8.5314
2023-04-19T01:31:23.395Z,8.5154
2023-04-19T01:32:24.361Z,8.5290
2023-04-19T01:33:25.468Z,8.5073
2023-04-19T01:34:26.155Z,8.5068
2023-04-19T01:35:26.855Z,8.5099
2023-04-19T01:36:27.572Z,8.5225
2023-04-19T01:37:28.227Z,8.5145
2023-04-19T01:38:28.918Z,8.5177
2023-04-19T01:39:29.690Z,8.5061
2023-04-19T01:40:30.338Z,8.5139
2023-04-19T01:41:31.025Z,8.4973
2023-04-19T01:42:31.685Z,8.5024
2023-04-19T01:43:32.334Z,8.5067
2023-04-19T01:44:33.138Z,8.4960
2023-04-19T01:45:33.932Z,8.4874
2023-04-19T01:46:34.766Z,8.4886
2023-04-19T01:47:36.167Z,8.4610
2023-04-19T01:48:37.205Z,8.4496
2023-04-19T01:49:37.981Z,8.4443
2023-04-19T01:50:38.777Z,8.4355
2023-04-19T01:51:39.471Z,8.4271
2023-04-19T01:52:40.250Z,8.4120
2023-04-19T01:53:40.947Z,8.4321
2023-04-19T01:54:42.010Z,8.4001
2023-04-19T01:55:42.631Z,8.3813
2023-04-19T01:56:43.368Z,8.3628
2023-04-19T01:57:44.112Z,8.3749
2023-04-19T01:58:44.905Z,8.3687
2023-04-19T01:59:45.729Z,8.3649
2023-04-19T02:00:46.516Z,8.3427
2023-04-19T02:01:47.986Z,8.3524
2023-04-19T02:02:49.339Z,8.3307
2023-04-19T02:03:50.622Z,8.3221
2023-04-19T02:04:51.394Z,8.3248
2023-04-19T02:05:52.125Z,8.3250
2023-04-19T02:06:52.951Z,8.3202
2023-04-19T02:07:53.684Z,8.3194
2023-04-19T02:08:54.381Z,8.3282
2023-04-19T02:09:55.071Z,8.3176
2023-04-19T02:10:55.848Z,8.3222
2023-04-19T02:11:56.617Z,8.3245
2023-04-19T02:12:57.277Z,8.3371
2023-04-19T02:13:57.965Z,8.3354
2023-04-19T02:14:58.669Z,8.3363
2023-04-19T02:15:59.406Z,8.3471
2023-04-19T02:16:59.814Z,8.3635
2023-04-19T02:18:00.667Z,8.3710
2023-04-19T02:19:01.398Z,8.3834
2023-04-19T02:20:02.132Z,8.3965
2023-04-19T02:21:02.929Z,8.3947
2023-04-19T02:22:03.589Z,8.3884
2023-04-19T02:23:04.391Z,8.3932
2023-04-19T02:24:05.137Z,8.3960
2023-04-19T02:25:06.291Z,8.4006
2023-04-19T02:26:07.161Z,8.4033
2023-04-19T02:27:07.964Z,8.4146
2023-04-19T02:28:08.730Z,8.4103
2023-04-19T02:29:09.461Z,8.4130
2023-04-19T02:30:10.206Z,8.4144
2023-04-19T02:31:10.906Z,8.4301
2023-04-19T02:32:11.906Z,8.4051
2023-04-19T02:33:12.967Z,8.4081
2023-04-19T02:34:13.726Z,8.4163
2023-04-19T02:35:14.091Z,8.4158
2023-04-19T02:36:14.859Z,8.4129
2023-04-19T02:37:15.699Z,8.4151
2023-04-19T02:38:16.527Z,8.4238
2023-04-19T02:39:17.271Z,8.4183
2023-04-19T02:40:18.045Z,8.4167
2023-04-19T02:41:18.837Z,8.4199
2023-04-19T02:42:19.557Z,8.4226
2023-04-19T02:43:20.528Z,8.4369
2023-04-19T02:44:21.207Z,8.4248
2023-04-19T02:45:22.043Z,8.4327
2023-04-19T02:46:22.936Z,8.4317
2023-04-19T02:47:23.877Z,8.4419
2023-04-19T02:48:24.698Z,8.4275
2023-04-19T02:49:25.400Z,8.4286
2023-04-19T02:50:26.191Z,8.4349
2023-04-19T02:51:26.904Z,8.4505
2023-04-19T02:52:27.684Z,8.4578
2023-04-19T02:53:28.421Z,8.4459
2023-04-19T02:54:29.223Z,8.4533
2023-04-19T02:55:29.958Z,8.4430
2023-04-19T02:56:30.574Z,8.4466
2023-04-19T02:57:31.394Z,8.4405
2023-04-19T02:58:32.206Z,8.4304
2023-04-19T02:59:33.026Z,8.4562
2023-04-19T03:00:34.036Z,8.4440
2023-04-19T03:01:34.922Z,8.4599
2023-04-19T03:02:35.879Z,8.4578
2023-04-19T03:03:36.244Z,8.4448
2023-04-19T03:04:36.339Z,8.4453
2023-04-19T03:05:37.098Z,8.4513
2023-04-19T03:06:37.834Z,8.4513
2023-04-19T03:07:38.598Z,8.4613
2023-04-19T03:08:39.601Z,8.4723
2023-04-19T03:09:40.359Z,8.4641
2023-04-19T03:10:41.178Z,8.4747
2023-04-19T03:11:41.937Z,8.4613
2023-04-19T03:12:42.628Z,8.4618
2023-04-19T03:13:43.317Z,8.4740
2023-04-19T03:14:44.646Z,8.4708
2023-04-19T03:15:45.414Z,8.4503
2023-04-19T03:16:46.611Z,8.4383
2023-04-19T03:17:47.356Z,8.4353
2023-04-19T03:18:49.438Z,8.4366
2023-04-19T03:19:49.067Z,8.4287
2023-04-19T03:20:50.061Z,8.4446
2023-04-19T03:21:50.861Z,8.4401
2023-04-19T03:22:51.700Z,8.4243
2023-04-19T03:23:52.633Z,8.4023
2023-04-19T03:24:53.792Z,8.4186
2023-04-19T03:25:54.699Z,8.3973
2023-04-19T03:26:55.516Z,8.3920
2023-04-19T03:27:56.317Z,8.4068
2023-04-19T03:28:57.068Z,8.3819
2023-04-19T03:29:58.773Z,8.3797
2023-04-19T03:30:58.059Z,8.3808
2023-04-19T03:31:58.589Z,8.3711
2023-04-19T03:32:59.453Z,8.3656
2023-04-19T03:34:00.387Z,8.3738
2023-04-19T03:35:01.279Z,8.3694
2023-04-19T03:36:01.967Z,8.3672
2023-04-19T03:37:02.689Z,8.3573
2023-04-19T03:38:03.480Z,8.3270
2023-04-19T03:39:04.113Z,8.3365
2023-04-19T03:40:04.860Z,8.3376
2023-04-19T03:41:05.617Z,8.3269
2023-04-19T03:41:44.723Z,8.3316
2023-04-19T03:42:45.284Z,8.3255
2023-04-19T03:43:45.766Z,8.3118
2023-04-19T03:44:46.276Z,8.3143
2023-04-19T03:45:46.689Z,8.3247
2023-04-19T03:46:47.067Z,8.3208
2023-04-19T03:47:48.019Z,8.3237
2023-04-19T03:48:48.709Z,8.3425
2023-04-19T03:49:49.288Z,8.3277
2023-04-19T03:50:49.789Z,8.3309
2023-04-19T03:51:50.155Z,8.3320
2023-04-19T03:52:50.728Z,8.3116
2023-04-19T03:53:51.198Z,8.3050
2023-04-19T03:54:52.416Z,8.3190
2023-04-19T03:55:53.004Z,8.3425
2023-04-19T03:56:53.425Z,8.3551
2023-04-19T03:57:53.915Z,8.3420
2023-04-19T03:58:54.119Z,8.3495
2023-04-19T03:59:54.490Z,8.3473
2023-04-19T04:00:55.173Z,8.3431
2023-04-19T04:01:56.845Z,8.3644
2023-04-19T04:02:57.553Z,8.3623
2023-04-19T04:03:58.065Z,8.3632
2023-04-19T04:04:58.966Z,8.3723
2023-04-19T04:05:59.082Z,8.3736
2023-04-19T04:06:59.476Z,8.3764
2023-04-19T04:08:00.033Z,8.3711
2023-04-19T04:09:00.659Z,8.3752
2023-04-19T04:10:01.228Z,8.3777
2023-04-19T04:11:01.854Z,8.3816
2023-04-19T04:12:02.383Z,8.3850
2023-04-19T04:13:02.755Z,8.3823
2023-04-19T04:14:03.494Z,8.3875
2023-04-19T04:15:03.856Z,8.3795
2023-04-19T04:16:04.500Z,8.3834
2023-04-19T04:17:05.451Z,8.3780
2023-04-19T04:18:08.486Z,8.3884
2023-04-19T04:20:06.252Z,8.3802
2023-04-19T04:21:06.900Z,8.3800
2023-04-19T04:22:07.620Z,8.3859
2023-04-19T04:23:08.318Z,8.3841
2023-04-19T04:24:08.909Z,8.3760
2023-04-19T04:25:09.326Z,8.3706
2023-04-19T04:26:09.609Z,8.3757
2023-04-19T04:27:09.999Z,8.3779
2023-04-19T04:28:10.601Z,8.3898
2023-04-19T04:29:11.209Z,8.3796
2023-04-19T04:30:11.590Z,8.3874
2023-04-19T04:31:12.037Z,8.3942
2023-04-19T04:32:13.435Z,8.3939
2023-04-19T04:33:13.866Z,8.3962
2023-04-19T04:34:14.556Z,8.3961
2023-04-19T04:35:15.597Z,8.4045
2023-04-19T04:36:16.743Z,8.4100
2023-04-19T04:37:17.263Z,8.4020
2023-04-19T04:38:25.092Z,8.3956
2023-04-19T04:39:22.318Z,8.3843
2023-04-19T04:40:22.741Z,8.3927
2023-04-19T04:41:23.816Z,8.4066
2023-04-19T04:42:24.454Z,8.4099
2023-04-19T04:43:24.842Z,8.4089
2023-04-19T04:44:25.742Z,8.4052
2023-04-19T04:46:26.119Z,8.4145
2023-04-19T04:47:26.744Z,8.4082
2023-04-19T04:48:27.404Z,8.4190
2023-04-19T04:49:27.975Z,8.4037
2023-04-19T04:50:28.513Z,8.4181
2023-04-19T04:51:28.875Z,8.4078
2023-04-19T04:52:29.519Z,8.4076
2023-04-19T04:53:30.093Z,8.4138
2023-04-19T04:54:30.481Z,8.4075
2023-04-19T04:55:31.220Z,8.4197
2023-04-19T04:56:31.765Z,8.3948
2023-04-19T04:57:32.651Z,8.4022
2023-04-19T04:58:33.345Z,8.3962
2023-04-19T04:59:33.898Z,8.3994
2023-04-19T05:00:34.379Z,8.3913
2023-04-19T05:01:35.277Z,8.3976
2023-04-19T05:02:36.415Z,8.3944
2023-04-19T05:03:37.192Z,8.4089
2023-04-19T05:04:38.459Z,8.4003
2023-04-19T05:05:38.894Z,8.3958
2023-04-19T05:06:39.424Z,8.3868
2023-04-19T05:07:39.949Z,8.3821
2023-04-19T05:08:41.016Z,8.3814
2023-04-19T05:09:41.688Z,8.3899
2023-04-19T05:10:42.224Z,8.3822
2023-04-19T05:11:42.496Z,8.4030
2023-04-19T05:12:43.081Z,8.3994
2023-04-19T05:13:43.495Z,8.4059
2023-04-19T05:14:43.533Z,8.4007
2023-04-19T05:15:44.135Z,8.4066
2023-04-19T05:16:44.924Z,8.4259
2023-04-19T05:17:45.842Z,8.4365
2023-04-19T05:18:46.887Z,8.4564
2023-04-19T05:19:47.391Z,8.4674
2023-04-19T05:20:48.338Z,8.4806
2023-04-19T05:21:49.136Z,8.4893
2023-04-19T05:22:49.550Z,8.5098
2023-04-19T05:23:50.604Z,8.5161
2023-04-19T05:24:50.825Z,8.5178
2023-04-19T05:25:51.645Z,8.5070
2023-04-19T05:26:52.138Z,8.5170
2023-04-19T05:27:52.599Z,8.5288
2023-04-19T05:28:53.256Z,8.5399
2023-04-19T05:29:53.965Z,8.5406
2023-04-19T05:30:54.482Z,8.5473
2023-04-19T05:31:54.664Z,8.5462
2023-04-19T05:32:55.441Z,8.5632
2023-04-19T05:33:56.120Z,8.5855
2023-04-19T05:34:56.456Z,8.6024
2023-04-19T05:35:56.908Z,8.6015
2023-04-19T05:36:57.480Z,8.6102
2023-04-19T05:37:58.366Z,8.6080
2023-04-19T05:38:58.946Z,8.6201
2023-04-19T05:40:00.217Z,8.6285
2023-04-19T05:41:00.663Z,8.6219
2023-04-19T05:42:01.515Z,8.6285
2023-04-19T05:43:02.514Z,8.6296
2023-04-19T05:44:03.101Z,8.6406
2023-04-19T05:45:05.834Z,8.6562
2023-04-19T05:46:04.367Z,8.6480
2023-04-19T05:47:05.106Z,8.6499
2023-04-19T05:48:06.270Z,8.6417
2023-04-19T05:49:06.782Z,8.6356
2023-04-19T05:50:07.109Z,8.6599
2023-04-19T05:51:07.934Z,8.6432
2023-04-19T05:52:08.372Z,8.6378
2023-04-19T05:53:08.937Z,8.6274
2023-04-19T05:54:10.123Z,8.6315
2023-04-19T05:55:10.636Z,8.6501
2023-04-19T05:56:11.200Z,8.6436
2023-04-19T05:57:11.632Z,8.6585
2023-04-19T05:58:12.278Z,8.6533
2023-04-19T05:59:13.246Z,8.6691
2023-04-19T06:00:13.724Z,8.6778
2023-04-19T06:01:14.395Z,8.6934
2023-04-19T06:02:15.804Z,8.7165
2023-04-19T06:03:16.925Z,8.6944
2023-04-19T06:04:18.028Z,8.7118
2023-04-19T06:05:18.616Z,8.7241
2023-04-19T06:06:19.926Z,8.7377
2023-04-19T06:07:30.912Z,8.7221
2023-04-19T06:08:21.028Z,8.7015
2023-04-19T06:09:22.007Z,8.7056
2023-04-19T06:10:22.971Z,8.7153
2023-04-19T06:11:34.595Z,8.7235
2023-04-19T06:12:27.391Z,8.7444
2023-04-19T06:13:28.026Z,8.7394
2023-04-19T06:14:29.293Z,8.7555
2023-04-19T06:15:29.665Z,8.7567
2023-04-19T06:16:30.954Z,8.7738
2023-04-19T06:17:32.059Z,8.7380
2023-04-19T06:18:32.122Z,8.7617
2023-04-19T06:19:32.766Z,8.7853
2023-04-19T06:20:33.042Z,8.7958
2023-04-19T06:21:33.686Z,8.7903
2023-04-19T06:22:34.374Z,8.7812
2023-04-19T06:23:34.950Z,8.7885
2023-04-19T06:24:35.580Z,8.8029
2023-04-19T06:25:36.180Z,8.8188
2023-04-19T06:26:36.631Z,8.8255
2023-04-19T06:27:37.252Z,8.8417
2023-04-19T06:28:37.878Z,8.8440
2023-04-19T06:29:38.530Z,8.8523
2023-04-19T06:30:39.137Z,8.8545
2023-04-19T06:31:39.830Z,8.8584
2023-04-19T06:32:40.812Z,8.8737
2023-04-19T06:33:41.629Z,8.8552
2023-04-19T06:34:42.081Z,8.8761
2023-04-19T06:35:42.885Z,8.8827
2023-04-19T06:36:43.393Z,8.8771
2023-04-19T06:37:43.986Z,8.8802
2023-04-19T06:38:45.136Z,8.8991
2023-04-19T06:39:45.642Z,8.8806
2023-04-19T06:40:46.351Z,8.9078
2023-04-19T06:41:46.888Z,8.9056
2023-04-19T06:42:47.349Z,8.9218
2023-04-19T06:43:48.164Z,8.9311
2023-04-19T06:44:49.668Z,8.9150
2023-04-19T06:45:50.106Z,8.9307
2023-04-19T06:46:50.115Z,8.9409
2023-04-19T06:47:50.753Z,8.9454
2023-04-19T06:48:51.824Z,8.9342
2023-04-19T06:49:52.503Z,8.9452
2023-04-19T06:50:52.939Z,8.9422
2023-04-19T06:51:53.583Z,8.9917
2023-04-19T06:52:54.209Z,8.9939
2023-04-19T06:53:54.893Z,8.9946
2023-04-19T06:54:55.787Z,8.9968
2023-04-19T06:55:56.301Z,9.0116
2023-04-19T06:56:57.031Z,9.0219
2023-04-19T06:57:57.703Z,9.0483
2023-04-19T06:58:58.288Z,9.0506
2023-04-19T06:59:59.127Z,9.0629
2023-04-19T07:00:59.912Z,9.0759
2023-04-19T07:02:00.110Z,9.0803
2023-04-19T07:03:01.009Z,9.0910
2023-04-19T07:04:02.266Z,9.0775
2023-04-19T07:05:02.337Z,9.0801
2023-04-19T07:06:03.046Z,9.1139
2023-04-19T07:07:03.478Z,9.1512
2023-04-19T07:08:04.004Z,9.1468
2023-04-19T07:09:04.332Z,9.1465
2023-04-19T07:10:04.769Z,9.1470
2023-04-19T07:11:05.624Z,9.1666
2023-04-19T07:12:06.329Z,9.1606
2023-04-19T07:13:06.742Z,9.2037
2023-04-19T07:14:07.391Z,9.2361
2023-04-19T07:15:07.498Z,9.2428
2023-04-19T07:16:08.302Z,9.2560
2023-04-19T07:17:09.192Z,9.2476
2023-04-19T07:18:09.789Z,9.2289
2023-04-19T07:19:10.366Z,9.2391
2023-04-19T07:20:11.047Z,9.2670
2023-04-19T07:21:11.448Z,9.2893
2023-04-19T07:22:13.702Z,9.3072
2023-04-19T07:23:13.202Z,9.2972
2023-04-19T07:24:13.795Z,9.3414
2023-04-19T07:25:13.892Z,9.3551
2023-04-19T07:26:14.505Z,9.3840
2023-04-19T07:27:15.358Z,9.4263
2023-04-19T07:28:15.602Z,9.4634
2023-04-19T07:29:16.373Z,9.4624
2023-04-19T07:30:17.131Z,9.4843
2023-04-19T07:31:17.942Z,9.4866
2023-04-19T07:32:19.224Z,9.5021
2023-04-19T07:33:20.906Z,9.5294
2023-04-19T07:34:21.712Z,9.5433
2023-04-19T07:35:22.246Z,9.5101
2023-04-19T07:36:23.000Z,9.5075
2023-04-19T07:37:23.879Z,9.5317
2023-04-19T07:38:24.595Z,9.5439
2023-04-19T07:39:25.319Z,9.5922
2023-04-19T07:40:25.792Z,9.6260
2023-04-19T07:41:26.506Z,9.6417
2023-04-19T07:42:27.149Z,9.6626
2023-04-19T07:43:27.628Z,9.5443
2023-04-19T07:44:28.362Z,9.6224
2023-04-19T07:45:28.851Z,9.6198
2023-04-19T07:46:29.670Z,9.6040
2023-04-19T07:47:30.526Z,9.6729
2023-04-19T07:48:31.462Z,9.6969
2023-04-19T07:49:32.206Z,9.7111
2023-04-19T07:50:33.069Z,9.6962
2023-04-19T07:51:33.489Z,9.7102
2023-04-19T07:52:34.173Z,9.7098
2023-04-19T07:53:34.533Z,9.6783
2023-04-19T07:54:35.873Z,9.6308
2023-04-19T07:55:36.594Z,9.6596
2023-04-19T07:56:37.222Z,9.6700
2023-04-19T07:57:37.928Z,9.6762
2023-04-19T07:58:38.623Z,9.6953
2023-04-19T07:59:39.347Z,9.6876
2023-04-19T08:00:40.006Z,9.6813
2023-04-19T08:01:41.174Z,9.6709
2023-04-19T08:02:42.234Z,9.6834
2023-04-19T08:03:43.030Z,9.6883
2023-04-19T08:04:43.702Z,9.6955
2023-04-19T08:05:44.081Z,9.6829
2023-04-19T08:06:44.688Z,9.6702
2023-04-19T08:07:45.214Z,9.6498
2023-04-19T08:08:45.800Z,9.6979
2023-04-19T08:09:46.833Z,9.7287
2023-04-19T08:10:47.566Z,9.7632
2023-04-19T08:11:48.406Z,9.8085
2023-04-19T08:13:05.140Z,9.7713
2023-04-19T08:14:06.964Z,9.8239
2023-04-19T08:15:05.370Z,9.8339
2023-04-19T08:18:05.823Z,9.8906
2023-04-19T08:19:06.750Z,9.8536
2023-04-19T08:20:07.344Z,9.8722
2023-04-19T08:21:08.034Z,9.8823
2023-04-19T08:22:08.992Z,9.9244
2023-04-19T08:23:20.413Z,9.9227
2023-04-19T08:24:10.782Z,9.8971
2023-04-19T08:25:11.348Z,9.9341
2023-04-19T08:26:11.919Z,9.9752
2023-04-19T08:27:12.409Z,9.9897
2023-04-19T08:28:13.092Z,10.0423
2023-04-19T08:29:13.733Z,10.0745
2023-04-19T08:30:14.273Z,10.1616
2023-04-19T08:31:14.937Z,10.1709
2023-04-19T08:32:16.004Z,10.2175
2023-04-19T08:33:16.980Z,10.2241
2023-04-19T08:34:17.701Z,10.2089
2023-04-19T08:35:18.278Z,10.2149
2023-04-19T08:36:22.425Z,10.2237
2023-04-19T08:37:18.908Z,10.2322
2023-04-19T08:38:19.106Z,10.2112
2023-04-19T08:39:31.729Z,10.2294
2023-04-19T08:40:21.810Z,10.2084
2023-04-19T08:41:22.308Z,10.1656
2023-04-19T08:42:35.790Z,10.2103
2023-04-19T08:43:25.256Z,10.2239
2023-04-19T08:44:35.768Z,10.2285
2023-04-19T08:45:28.873Z,10.2149
2023-04-19T08:46:29.000Z,10.2057
2023-04-19T08:47:34.233Z,10.2295
2023-04-19T08:48:34.335Z,10.1808
2023-04-19T08:49:34.378Z,10.2009
2023-04-19T08:50:42.691Z,10.1790
2023-04-19T08:51:35.817Z,10.1887
2023-04-19T08:52:47.867Z,10.2118
2023-04-19T08:53:36.407Z,10.2635
2023-04-19T08:54:36.969Z,10.2460
2023-04-19T08:55:40.058Z,10.2263
2023-04-19T08:56:38.379Z,10.2225
2023-04-19T08:57:38.913Z,10.2219
2023-04-19T08:59:41.042Z,10.2882
2023-04-19T09:00:41.511Z,10.3211
2023-04-19T09:01:44.505Z,10.3600
2023-04-19T09:02:42.959Z,10.3503
2023-04-19T09:03:58.438Z,10.4011
2023-04-19T09:04:43.790Z,10.4031
2023-04-19T09:05:44.312Z,10.4262
2023-04-19T09:06:44.610Z,10.4190
2023-04-19T09:07:45.501Z,10.4637
2023-04-19T09:08:46.204Z,10.5157
2023-04-19T09:10:02.067Z,10.5117
2023-04-19T09:10:51.542Z,10.5460
2023-04-19T09:11:52.571Z,10.5388
2023-04-19T09:12:52.628Z,10.5861
2023-04-19T09:13:53.092Z,10.6069
2023-04-19T09:15:01.973Z,10.6360
2023-04-19T09:15:57.156Z,10.6732
2023-04-19T09:16:58.058Z,10.7540
2023-04-19T09:17:58.948Z,10.7901
2023-04-19T09:19:11.519Z,10.8695
2023-04-19T09:19:59.106Z,11.0353
2023-04-19T09:20:59.773Z,10.9663
2023-04-19T09:22:00.535Z,11.0201
2023-04-19T09:23:01.165Z,11.0702
2023-04-19T09:24:04.941Z,11.1095
2023-04-19T09:27:13.588Z,11.3583
2023-04-19T09:28:14.109Z,11.3715
2023-04-19T09:29:15.158Z,11.3382
2023-04-19T09:30:30.050Z,11.3103
2023-04-19T09:32:26.255Z,11.2796
2023-04-19T09:33:26.602Z,11.2882
2023-04-19T09:34:27.660Z,11.2485
2023-04-19T09:35:28.421Z,11.2394
2023-04-19T09:36:28.999Z,11.2294
2023-04-19T09:38:29.895Z,11.2000
2023-04-19T09:39:30.447Z,11.2710
2023-04-19T09:40:31.266Z,11.3150
2023-04-19T09:41:31.961Z,11.3231
2023-04-19T09:42:51.004Z,11.4239
2023-04-19T09:44:52.934Z,11.6083
2023-04-19T09:45:34.863Z,11.5615
2023-04-19T09:46:35.579Z,11.4917
2023-04-19T09:47:35.856Z,11.3570
2023-04-19T09:48:36.973Z,11.4083
2023-04-19T09:49:45.927Z,11.3695
2023-04-19T09:50:54.598Z,11.4078
2023-04-19T09:51:44.758Z,11.4170
2023-04-19T09:52:45.183Z,11.4639
2023-04-19T09:53:46.280Z,11.3495
2023-04-19T09:54:46.867Z,11.3224
2023-04-19T09:55:59.722Z,11.3253
2023-04-19T09:56:48.491Z,11.2919
2023-04-19T09:57:48.994Z,11.2235
2023-04-19T09:58:54.583Z,11.2701
2023-04-19T09:59:51.296Z,11.2828
2023-04-19T10:00:57.278Z,11.2997
2023-04-19T10:01:52.995Z,11.2132
2023-04-19T10:02:53.481Z,11.2660
2023-04-19T10:03:55.571Z,11.1665
2023-04-19T10:05:16.482Z,11.1731
2023-04-19T10:06:10.205Z,11.1729
2023-04-19T10:07:28.964Z,11.1923
2023-04-19T10:08:07.235Z,11.2005
2023-04-19T10:09:07.261Z,11.2002
2023-04-19T10:10:20.372Z,11.2248
2023-04-19T10:11:13.199Z,11.2898
2023-04-19T10:12:38.558Z,11.2330
2023-04-19T10:13:21.403Z,11.0866
2023-04-19T10:14:20.002Z,11.1144
2023-04-19T10:15:20.363Z,11.1526
2023-04-19T10:16:21.084Z,11.0581
2023-04-19T10:17:22.214Z,10.9662
2023-04-19T10:18:22.404Z,10.9858
2023-04-19T10:19:22.451Z,11.0236
2023-04-19T10:20:23.476Z,11.0142
2023-04-19T10:21:24.335Z,11.0212
2023-04-19T10:22:25.075Z,11.0456
2023-04-19T10:23:25.630Z,11.0750
2023-04-19T10:24:26.519Z,11.1172
2023-04-19T10:25:27.820Z,11.0916
2023-04-19T10:26:28.282Z,11.0338
2023-04-19T10:27:29.618Z,11.1035
2023-04-19T10:28:30.448Z,11.1413
2023-04-19T10:29:30.912Z,11.2289
2023-04-19T10:30:30.951Z,11.3119
2023-04-19T10:31:31.715Z,11.3914
2023-04-19T10:32:32.900Z,11.4163
2023-04-19T10:33:34.060Z,11.5271
2023-04-19T10:34:34.820Z,11.7100
2023-04-19T10:35:35.713Z,11.7911
2023-04-19T10:36:36.821Z,11.9223
2023-04-19T10:37:37.399Z,12.0983
2023-04-19T10:38:38.244Z,12.1479
2023-04-19T10:39:38.929Z,12.1733
2023-04-19T10:40:39.964Z,12.1379
2023-04-19T10:42:43.332Z,12.0279
2023-04-19T10:43:44.038Z,11.9309
2023-04-19T10:44:44.522Z,11.9340
2023-04-19T10:45:45.392Z,11.8336
2023-04-19T10:46:46.570Z,11.7778
2023-04-19T10:47:47.348Z,11.6749
2023-04-19T10:48:48.105Z,11.6546
2023-04-19T10:49:48.942Z,11.6482
2023-04-19T10:50:49.235Z,11.6617
2023-04-19T10:51:49.986Z,11.5909
2023-04-19T10:52:50.545Z,11.5635
2023-04-19T10:53:50.968Z,11.5476
2023-04-19T10:54:51.529Z,11.4548
2023-04-19T10:55:52.068Z,11.4166
2023-04-19T10:56:52.545Z,11.3305
2023-04-19T10:57:53.421Z,11.3302
2023-04-19T10:58:54.250Z,11.3309
2023-04-19T10:59:54.305Z,11.3819
2023-04-19T11:00:54.809Z,11.3931
2023-04-19T11:01:55.750Z,11.3896
2023-04-19T11:02:56.721Z,11.3140
2023-04-19T11:03:56.948Z,11.3390
2023-04-19T11:04:57.893Z,11.3387
2023-04-19T11:05:58.304Z,11.3867
2023-04-19T11:06:58.965Z,11.3858
2023-04-19T11:07:59.607Z,11.3569
2023-04-19T11:09:00.219Z,11.3970
2023-04-19T11:10:00.969Z,11.3226
2023-04-19T11:11:01.705Z,11.3397
2023-04-19T11:12:02.317Z,11.3062
2023-04-19T11:13:03.072Z,11.3364
2023-04-19T11:14:03.873Z,11.3171
2023-04-19T11:15:04.362Z,11.3497
2023-04-19T11:16:04.700Z,11.3945
2023-04-19T11:17:04.820Z,11.3570
2023-04-19T11:18:12.043Z,11.4101
2023-04-19T11:19:05.878Z,11.3219
2023-04-19T11:20:06.283Z,11.3963
2023-04-19T11:21:07.047Z,11.4264
2023-04-19T11:22:07.835Z,11.4328
2023-04-19T11:23:08.565Z,11.5382
2023-04-19T11:24:09.231Z,11.5916
2023-04-19T11:25:09.995Z,11.7128
2023-04-19T11:26:10.699Z,11.7700
2023-04-19T11:27:11.139Z,11.7730
2023-04-19T11:28:11.681Z,11.8324
2023-04-19T11:29:12.357Z,11.9543
2023-04-19T11:30:12.822Z,12.0601
2023-04-19T11:31:13.610Z,12.1632
2023-04-19T11:32:14.858Z,12.1807
2023-04-19T11:33:15.656Z,12.1870
2023-04-19T11:34:16.729Z,12.2022
2023-04-19T11:35:16.547Z,12.2864
2023-04-19T11:36:17.203Z,12.2001
2023-04-19T11:37:17.954Z,12.1349
2023-04-19T11:38:18.627Z,12.2121
2023-04-19T11:39:20.065Z,12.1852
2023-04-19T11:41:19.852Z,12.1125
2023-04-19T11:42:20.473Z,12.1945
2023-04-19T11:43:20.936Z,12.0262
2023-04-19T11:44:21.134Z,12.0544
2023-04-19T11:45:30.329Z,12.0808
2023-04-19T11:46:26.238Z,12.0530
2023-04-19T11:47:26.399Z,12.0176
2023-04-19T11:48:27.502Z,11.9492
2023-04-19T11:49:27.957Z,11.9921
2023-04-19T11:50:29.074Z,11.9476
2023-04-19T11:51:29.980Z,11.9987
2023-04-19T11:52:30.995Z,11.9543
2023-04-19T11:53:31.540Z,11.9481
2023-04-19T11:54:32.714Z,12.0072
2023-04-19T11:55:33.364Z,12.0273
2023-04-19T11:56:33.850Z,11.9448
2023-04-19T11:57:34.027Z,11.9425
2023-04-19T11:58:34.511Z,11.9506
2023-04-19T11:59:35.205Z,11.8317
2023-04-19T12:00:35.956Z,11.8237
2023-04-19T12:01:36.274Z,11.7766
2023-04-19T12:02:37.472Z,11.8143
2023-04-19T12:03:40.014Z,11.8236
2023-04-19T12:04:39.490Z,11.8308
2023-04-19T12:05:39.766Z,11.8193
2023-04-19T12:06:40.355Z,11.8332
2023-04-19T12:07:41.051Z,11.8660
2023-04-19T12:08:41.723Z,11.9673
2023-04-19T12:09:41.969Z,11.9040
2023-04-19T12:10:42.534Z,11.9999
2023-04-19T12:11:43.260Z,12.0856
2023-04-19T12:12:43.713Z,12.0744
2023-04-19T12:13:44.396Z,11.9557
2023-04-19T12:14:44.870Z,12.0140
2023-04-19T12:15:45.186Z,12.0158
2023-04-19T12:16:46.090Z,11.9886
2023-04-19T12:17:56.989Z,11.9392
2023-04-19T12:18:46.911Z,11.8331
2023-04-19T12:19:47.338Z,11.8271
2023-04-19T12:20:48.167Z,11.8555
2023-04-19T12:21:48.961Z,11.7309
2023-04-19T12:22:49.460Z,11.6824
2023-04-19T12:23:50.047Z,11.6131
2023-04-19T12:24:50.695Z,11.6562
2023-04-19T12:25:51.123Z,11.7253
2023-04-19T12:26:52.979Z,11.7298
2023-04-19T12:27:52.826Z,11.6417
2023-04-19T12:28:53.424Z,11.6119
2023-04-19T12:29:54.683Z,11.6771
2023-04-19T12:30:56.138Z,11.6265
2023-04-19T12:31:56.590Z,11.5481
2023-04-19T12:32:57.681Z,11.5266
2023-04-19T12:33:58.261Z,11.5264
2023-04-19T12:34:58.498Z,11.5618
2023-04-19T12:35:59.232Z,11.5621
2023-04-19T12:36:59.772Z,11.5224
2023-04-19T12:38:00.488Z,11.5363
2023-04-19T12:39:01.179Z,11.4427
2023-04-19T12:40:02.044Z,11.4160
2023-04-19T12:41:02.693Z,11.4184
2023-04-19T12:42:03.359Z,11.3980